createdAt,value
2018-06-23T00:01:00.672Z,64.60
2018-06-23T00:03:30.367Z,64.45
2018-06-23T00:06:00.132Z,64.51
2018-06-23T00:08:29.511Z,64.93
2018-06-23T00:10:58.899Z,65.25
2018-06-23T00:13:28.597Z,65.36
2018-06-23T00:15:58.017Z,65.91
2018-06-23T00:18:27.371Z,65.82
2018-06-23T00:20:56.719Z,66.08
2018-06-23T00:23:26.072Z,65.93
2018-06-23T00:26:00.781Z,66.29
2018-06-23T00:28:30.142Z,66.48
2018-06-23T00:30:59.468Z,66.52
2018-06-23T00:33:28.819Z,66.57
2018-06-23T00:35:58.624Z,66.82
2018-06-23T00:38:27.944Z,67.00
2018-06-23T00:40:57.660Z,67.04
2018-06-23T00:43:27.455Z,67.47
2018-06-23T00:45:57.075Z,67.62
2018-06-23T00:48:26.421Z,67.84
2018-06-23T00:50:55.769Z,67.24
2018-06-23T00:53:25.162Z,67.69
2018-06-23T00:55:54.512Z,67.65
2018-06-23T00:58:23.908Z,67.22
2018-06-23T01:00:53.304Z,67.23
2018-06-23T01:03:22.704Z,67.24
2018-06-23T01:05:52.088Z,67.17
2018-06-23T01:08:21.440Z,67.15
2018-06-23T01:10:51.011Z,67.14
2018-06-23T01:13:20.398Z,67.18
2018-06-23T01:15:49.771Z,67.38
2018-06-23T01:18:19.135Z,67.31
2018-06-23T01:20:48.483Z,67.45
2018-06-23T01:23:17.864Z,67.17
2018-06-23T01:25:47.234Z,67.53
2018-06-23T01:28:16.627Z,67.76
2018-06-23T01:30:46.200Z,68.09
2018-06-23T01:33:15.572Z,67.95
2018-06-23T01:35:44.911Z,68.04
2018-06-23T01:38:14.247Z,68.12
2018-06-23T01:40:43.596Z,68.30
2018-06-23T01:43:12.940Z,68.53
2018-06-23T01:45:42.279Z,68.67
2018-06-23T01:48:11.659Z,68.96
2018-06-23T01:50:41.042Z,68.84
2018-06-23T01:53:10.376Z,68.82
2018-06-23T01:55:39.751Z,69.03
2018-06-23T01:58:09.082Z,68.83
2018-06-23T02:00:38.460Z,69.08
2018-06-23T02:03:07.815Z,68.73
2018-06-23T02:05:37.199Z,68.63
2018-06-23T02:08:07.793Z,68.51
2018-06-23T02:10:37.185Z,68.17
2018-06-23T02:13:06.648Z,67.99
2018-06-23T02:15:41.256Z,67.95
2018-06-23T02:18:15.920Z,67.89
2018-06-23T02:20:50.433Z,67.77
2018-06-23T02:25:31.419Z,68.13
2018-06-23T02:28:05.983Z,68.37
2018-06-23T02:30:41.599Z,68.88
2018-06-23T02:33:16.171Z,68.85
2018-06-23T02:35:45.517Z,68.83
2018-06-23T02:38:15.069Z,68.85
2018-06-23T02:40:44.419Z,68.62
2018-06-23T02:43:13.753Z,68.35
2018-06-23T02:45:43.110Z,68.42
2018-06-23T02:48:12.497Z,68.03
2018-06-23T02:50:41.881Z,68.09
2018-06-23T02:53:11.230Z,67.95
2018-06-23T02:55:40.596Z,67.84
2018-06-23T02:58:09.982Z,68.11
2018-06-23T03:00:39.336Z,67.94
2018-06-23T03:03:09.040Z,67.99
2018-06-23T03:05:38.411Z,68.20
2018-06-23T03:08:07.794Z,68.17
2018-06-23T03:10:37.140Z,68.33
2018-06-23T03:13:07.356Z,68.34
2018-06-23T03:15:36.708Z,68.16
2018-06-23T03:18:06.368Z,68.33
2018-06-23T03:20:35.755Z,68.32
2018-06-23T03:23:05.157Z,68.53
2018-06-23T03:25:34.524Z,68.54
2018-06-23T03:28:03.868Z,68.77
2018-06-23T03:30:33.216Z,68.70
2018-06-23T03:33:02.796Z,70.05
2018-06-23T03:35:32.163Z,70.30
2018-06-23T03:38:01.582Z,70.12
2018-06-23T03:40:30.920Z,69.88
2018-06-23T03:43:00.263Z,69.91
2018-06-23T03:45:29.621Z,69.60
2018-06-23T03:47:59.400Z,69.34
2018-06-23T03:50:29.366Z,68.91
2018-06-23T03:52:58.713Z,69.34
2018-06-23T03:55:28.073Z,68.69
2018-06-23T03:57:57.423Z,68.25
2018-06-23T04:00:27.063Z,68.35
2018-06-23T04:02:56.411Z,68.15
2018-06-23T04:05:26.081Z,68.10
2018-06-23T04:07:55.791Z,67.59
2018-06-23T04:10:25.119Z,67.99
2018-06-23T04:12:54.488Z,67.59
2018-06-23T04:15:24.488Z,67.67
2018-06-23T04:17:54.016Z,67.73
2018-06-23T04:20:23.452Z,67.87
2018-06-23T04:22:52.829Z,67.65
2018-06-23T04:25:22.189Z,67.48
2018-06-23T04:27:51.537Z,67.50
2018-06-23T04:30:20.859Z,67.31
2018-06-23T04:32:50.230Z,67.05
2018-06-23T04:35:19.610Z,67.11
2018-06-23T04:37:49.041Z,66.87
2018-06-23T04:40:18.726Z,66.67
2018-06-23T04:42:48.304Z,66.71
2018-06-23T04:45:18.153Z,66.54
2018-06-23T04:47:47.541Z,66.41
2018-06-23T04:50:16.908Z,65.81
2018-06-23T04:52:46.264Z,66.12
2018-06-23T04:55:15.659Z,65.79
2018-06-23T04:57:45.046Z,65.79
2018-06-23T05:00:14.537Z,65.79
2018-06-23T05:02:43.913Z,65.71
2018-06-23T05:05:13.319Z,65.70
2018-06-23T05:07:42.688Z,65.38
2018-06-23T05:10:12.059Z,65.33
2018-06-23T05:12:41.399Z,64.83
2018-06-23T05:15:10.804Z,64.72
2018-06-23T05:17:40.269Z,65.41
2018-06-23T05:20:10.777Z,65.42
2018-06-23T05:22:40.475Z,65.35
2018-06-23T05:25:09.838Z,65.29
2018-06-23T05:27:39.167Z,65.02
2018-06-23T05:30:08.933Z,64.59
2018-06-23T05:32:38.308Z,64.56
2018-06-23T05:35:09.604Z,64.82
2018-06-23T05:37:39.024Z,64.00
2018-06-23T05:40:08.805Z,64.32
2018-06-23T05:42:38.168Z,64.24
2018-06-23T05:45:08.328Z,64.03
2018-06-23T05:47:38.133Z,63.19
2018-06-23T05:50:12.744Z,62.43
2018-06-23T05:52:42.156Z,62.17
2018-06-23T05:55:11.912Z,62.46
2018-06-23T05:57:41.308Z,61.66
2018-06-23T06:00:10.712Z,62.04
2018-06-23T06:02:40.071Z,61.69
2018-06-23T06:05:09.410Z,61.70
2018-06-23T06:07:38.878Z,62.26
2018-06-23T06:10:08.231Z,61.88
2018-06-23T06:12:37.619Z,60.96
2018-06-23T06:15:10.672Z,61.92
2018-06-23T06:17:40.784Z,62.66
2018-06-23T06:20:11.740Z,62.38
2018-06-23T06:22:45.365Z,61.97
2018-06-23T06:28:01.170Z,62.81
2018-06-23T06:30:31.098Z,61.86
2018-06-23T06:33:00.492Z,62.44
2018-06-23T06:35:29.848Z,62.26
2018-06-23T06:37:59.197Z,61.73
2018-06-23T06:40:28.548Z,61.30
2018-06-23T06:42:57.899Z,60.65
2018-06-23T06:45:27.353Z,61.00
2018-06-23T06:47:56.833Z,60.97
2018-06-23T06:50:26.231Z,60.95
2018-06-23T06:52:55.589Z,60.83
2018-06-23T06:55:24.928Z,60.36
2018-06-23T06:57:54.293Z,60.46
2018-06-23T07:00:23.677Z,60.97
2018-06-23T07:02:53.036Z,60.80
2018-06-23T07:05:22.385Z,60.88
2018-06-23T07:07:51.984Z,60.43
2018-06-23T07:10:21.372Z,60.71
2018-06-23T07:12:50.761Z,60.04
2018-06-23T07:15:20.524Z,58.54
2018-06-23T07:17:49.869Z,59.97
2018-06-23T07:20:19.258Z,59.04
2018-06-23T07:22:48.611Z,59.23
2018-06-23T07:25:18.520Z,59.45
2018-06-23T07:27:47.958Z,59.06
2018-06-23T07:30:17.681Z,57.72
2018-06-23T07:32:47.022Z,58.35
2018-06-23T07:35:16.540Z,58.14
2018-06-23T07:37:45.947Z,57.90
2018-06-23T07:40:15.689Z,57.03
2018-06-23T07:42:45.047Z,54.90
2018-06-23T07:45:14.751Z,55.90
2018-06-23T07:47:44.189Z,55.32
2018-06-23T07:50:13.533Z,55.65
2018-06-23T07:52:42.912Z,55.70
2018-06-23T07:55:12.424Z,54.92
2018-06-23T07:57:41.905Z,54.68
2018-06-23T08:00:11.448Z,56.10
2018-06-23T08:02:40.816Z,56.58
2018-06-23T08:05:10.180Z,54.28
2018-06-23T08:07:39.621Z,55.17
2018-06-23T08:10:09.382Z,55.29
2018-06-23T08:12:39.263Z,56.02
2018-06-23T08:15:08.901Z,56.45
2018-06-23T08:17:38.256Z,55.85
2018-06-23T08:20:10.937Z,55.43
2018-06-23T08:22:40.453Z,55.81
2018-06-23T08:25:09.846Z,55.11
2018-06-23T08:27:39.261Z,55.03
2018-06-23T08:30:14.441Z,54.06
2018-06-23T08:32:44.154Z,53.63
2018-06-23T08:35:13.575Z,55.13
2018-06-23T08:37:43.035Z,55.77
2018-06-23T08:40:12.557Z,56.98
2018-06-23T08:42:41.928Z,58.08
2018-06-23T08:45:11.368Z,57.70
2018-06-23T08:47:40.726Z,57.26
2018-06-23T08:50:16.307Z,57.61
2018-06-23T08:52:45.709Z,58.18
2018-06-23T08:55:15.445Z,58.23
2018-06-23T08:57:44.799Z,57.16
2018-06-23T09:00:16.835Z,57.36
2018-06-23T09:02:46.227Z,56.12
2018-06-23T09:05:15.791Z,56.95
2018-06-23T09:07:45.379Z,56.32
2018-06-23T09:10:14.784Z,56.45
2018-06-23T09:12:44.154Z,56.25
2018-06-23T09:15:14.357Z,56.71
2018-06-23T09:17:43.884Z,56.11
2018-06-23T09:20:13.684Z,56.22
2018-06-23T09:22:43.088Z,55.68
2018-06-23T09:25:12.480Z,56.20
2018-06-23T09:27:43.415Z,55.44
2018-06-23T09:30:13.476Z,55.42
2018-06-23T09:32:42.825Z,54.27
2018-06-23T09:35:12.156Z,55.01
2018-06-23T09:37:41.861Z,55.06
2018-06-23T09:40:11.248Z,55.38
2018-06-23T09:42:41.239Z,54.99
2018-06-23T09:45:10.640Z,55.34
2018-06-23T09:47:40.096Z,54.80
2018-06-23T09:50:14.198Z,55.36
2018-06-23T09:52:43.540Z,55.54
2018-06-23T09:55:12.910Z,55.71
2018-06-23T09:57:42.255Z,54.99
2018-06-23T10:00:15.613Z,54.46
2018-06-23T10:02:46.344Z,54.08
2018-06-23T10:05:15.689Z,52.84
2018-06-23T10:07:46.050Z,53.06
2018-06-23T10:10:15.424Z,51.44
2018-06-23T10:12:44.791Z,51.09
2018-06-23T10:15:14.220Z,49.88
2018-06-23T10:17:43.575Z,49.13
2018-06-23T10:20:13.017Z,49.03
2018-06-23T10:22:42.376Z,49.83
2018-06-23T10:25:11.876Z,48.53
2018-06-23T10:27:41.324Z,49.28
2018-06-23T10:30:11.016Z,49.67
2018-06-23T10:32:40.463Z,50.76
2018-06-23T10:35:11.654Z,50.83
2018-06-23T10:37:42.496Z,51.38
2018-06-23T10:40:12.120Z,51.47
2018-06-23T10:42:41.484Z,52.80
2018-06-23T10:45:10.824Z,52.64
2018-06-23T10:47:40.260Z,52.38
2018-06-23T10:50:09.917Z,53.23
2018-06-23T10:52:39.247Z,52.85
2018-06-23T10:55:08.707Z,53.19
2018-06-23T10:57:38.137Z,52.52
2018-06-23T11:00:07.591Z,52.70
2018-06-23T11:02:37.139Z,51.58
2018-06-23T11:05:06.764Z,50.81
2018-06-23T11:07:36.206Z,49.68
2018-06-23T11:10:06.877Z,48.33
2018-06-23T11:12:36.482Z,49.10
2018-06-23T11:15:11.600Z,48.34
2018-06-23T11:17:41.144Z,47.79
2018-06-23T11:20:10.500Z,47.93
2018-06-23T11:22:39.934Z,48.01
2018-06-23T11:25:09.300Z,48.28
2018-06-23T11:27:38.739Z,47.94
2018-06-23T11:30:11.466Z,48.19
2018-06-23T11:32:40.944Z,47.07
2018-06-23T11:35:10.395Z,46.86
2018-06-23T11:37:39.998Z,46.17
2018-06-23T11:40:11.415Z,46.60
2018-06-23T11:42:40.840Z,46.39
2018-06-23T11:45:10.214Z,45.69
2018-06-23T11:47:39.553Z,45.41
2018-06-23T11:50:09.838Z,45.54
2018-06-23T11:52:39.683Z,45.02
2018-06-23T11:55:09.058Z,45.21
2018-06-23T11:57:38.484Z,43.99
2018-06-23T12:00:10.014Z,43.12
2018-06-23T12:02:39.751Z,42.42
2018-06-23T12:05:09.629Z,42.20
2018-06-23T12:07:39.037Z,40.79
2018-06-23T12:10:08.974Z,42.65
2018-06-23T12:12:38.485Z,43.51
2018-06-23T12:15:11.824Z,43.44
2018-06-23T12:17:41.185Z,44.04
2018-06-23T12:20:12.224Z,44.41
2018-06-23T12:22:41.791Z,44.01
2018-06-23T12:25:11.195Z,45.21
2018-06-23T12:27:40.607Z,45.27
2018-06-23T12:30:09.955Z,45.90
2018-06-23T12:32:39.369Z,45.34
2018-06-23T12:35:09.185Z,45.18
2018-06-23T12:37:38.564Z,45.05
2018-06-23T12:40:10.355Z,45.11
2018-06-23T12:42:39.771Z,45.10
2018-06-23T12:45:09.123Z,44.19
2018-06-23T12:47:38.502Z,43.71
2018-06-23T12:50:07.992Z,42.95
2018-06-23T12:52:37.325Z,43.01
2018-06-23T12:55:08.604Z,43.14
2018-06-23T12:57:38.048Z,43.45
2018-06-23T13:00:08.840Z,43.49
2018-06-23T13:02:38.769Z,44.07
2018-06-23T13:05:09.026Z,43.49
2018-06-23T13:07:38.672Z,43.37
2018-06-23T13:10:09.381Z,43.09
2018-06-23T13:12:38.733Z,42.65
2018-06-23T13:15:09.934Z,42.08
2018-06-23T13:17:39.528Z,40.72
2018-06-23T13:20:09.055Z,41.14
2018-06-23T13:22:38.436Z,42.01
2018-06-23T13:25:13.835Z,41.10
2018-06-23T13:27:43.267Z,41.28
2018-06-23T13:30:12.832Z,41.59
2018-06-23T13:32:42.213Z,40.59
2018-06-23T13:35:11.605Z,40.20
2018-06-23T13:37:40.994Z,40.43
2018-06-23T13:40:10.355Z,40.75
2018-06-23T13:42:39.724Z,40.89
2018-06-23T13:45:09.141Z,40.79
2018-06-23T13:47:38.899Z,40.47
2018-06-23T13:50:09.193Z,38.63
2018-06-23T13:52:38.543Z,38.46
2018-06-23T13:55:08.719Z,38.85
2018-06-23T13:57:38.420Z,38.48
2018-06-23T14:00:12.589Z,39.08
2018-06-23T14:02:42.053Z,38.19
2018-06-23T14:05:11.428Z,38.13
2018-06-23T14:07:40.820Z,38.70
2018-06-23T14:10:11.060Z,38.43
2018-06-23T14:12:40.412Z,37.28
2018-06-23T14:15:12.124Z,38.14
2018-06-23T14:17:41.637Z,37.91
2018-06-23T14:20:11.052Z,37.73
2018-06-23T14:22:41.037Z,36.59
2018-06-23T14:25:11.945Z,35.94
2018-06-23T14:27:41.303Z,37.31
2018-06-23T14:30:10.667Z,39.22
2018-06-23T14:32:40.040Z,39.87
2018-06-23T14:35:10.104Z,39.32
2018-06-23T14:37:39.572Z,39.44
2018-06-23T14:40:09.214Z,39.16
2018-06-23T14:42:38.749Z,38.59
2018-06-23T14:45:08.236Z,38.80
2018-06-23T14:47:37.610Z,38.81
2018-06-23T14:50:08.134Z,37.76
2018-06-23T14:52:37.456Z,38.15
2018-06-23T14:55:10.041Z,37.72
2018-06-23T14:57:39.411Z,38.64
2018-06-23T15:00:09.267Z,38.55
2018-06-23T15:02:38.620Z,39.32
2018-06-23T15:05:10.007Z,39.23
2018-06-23T15:07:39.440Z,39.27
2018-06-23T15:10:20.149Z,38.31
2018-06-23T15:13:00.431Z,39.13
2018-06-23T15:15:29.817Z,38.98
2018-06-23T15:17:59.169Z,38.20
2018-06-23T15:20:28.532Z,38.27
2018-06-23T15:22:58.267Z,35.27
2018-06-23T15:25:27.756Z,35.33
2018-06-23T15:27:57.176Z,35.32
2018-06-23T15:30:26.644Z,35.09
2018-06-23T15:32:56.000Z,34.42
2018-06-23T15:35:25.414Z,33.73
2018-06-23T15:37:54.737Z,32.39
2018-06-23T15:40:26.580Z,32.89
2018-06-23T15:42:56.119Z,32.64
2018-06-23T15:45:25.508Z,32.08
2018-06-23T15:47:54.856Z,29.95
2018-06-23T15:50:24.221Z,29.60
2018-06-23T15:52:53.543Z,30.19
2018-06-23T15:55:22.957Z,30.07
2018-06-23T15:57:52.324Z,29.66
2018-06-23T16:00:22.084Z,29.46
2018-06-23T16:02:51.440Z,28.46
2018-06-23T16:05:20.768Z,28.98
2018-06-23T16:07:50.140Z,29.23
2018-06-23T16:10:23.725Z,29.26
2018-06-23T16:12:54.499Z,29.14
2018-06-23T16:15:23.970Z,29.34
2018-06-23T16:17:53.373Z,29.12
2018-06-23T16:20:22.843Z,29.71
2018-06-23T16:22:52.195Z,28.70
2018-06-23T16:25:21.530Z,28.97
2018-06-23T16:27:50.928Z,29.55
2018-06-23T16:30:20.269Z,29.10
2018-06-23T16:32:49.622Z,29.67
2018-06-23T16:35:19.277Z,29.59
2018-06-23T16:37:48.572Z,30.12
2018-06-23T16:40:17.967Z,30.10
2018-06-23T16:42:47.303Z,30.56
2018-06-23T16:45:16.749Z,30.35
2018-06-23T16:47:46.068Z,30.27
2018-06-23T16:50:15.475Z,30.82
2018-06-23T16:52:44.810Z,31.83
2018-06-23T16:55:14.182Z,31.93
2018-06-23T16:57:43.564Z,32.43
2018-06-23T17:00:12.915Z,33.09
2018-06-23T17:02:42.258Z,33.10
2018-06-23T17:05:11.614Z,33.32
2018-06-23T17:07:41.045Z,33.61
2018-06-23T17:10:10.399Z,34.41
2018-06-23T17:12:39.735Z,34.43
2018-06-23T17:15:09.646Z,34.71
2018-06-23T17:17:39.733Z,34.61
2018-06-23T17:20:10.039Z,34.73
2018-06-23T17:22:39.380Z,34.69
2018-06-23T17:25:10.165Z,34.92
2018-06-23T17:27:39.504Z,35.26
2018-06-23T17:30:08.876Z,35.75
2018-06-23T17:32:38.280Z,35.54
2018-06-23T17:35:09.501Z,35.67
2018-06-23T17:37:38.931Z,36.21
2018-06-23T17:40:11.650Z,35.99
2018-06-23T17:42:41.025Z,36.54
2018-06-23T17:45:10.380Z,36.02
2018-06-23T17:47:39.724Z,36.55
2018-06-23T17:50:09.104Z,36.30
2018-06-23T17:52:38.473Z,36.70
2018-06-23T17:55:08.344Z,36.67
2018-06-23T17:57:37.738Z,36.65
2018-06-23T18:00:13.187Z,36.93
2018-06-23T18:02:42.608Z,37.16
2018-06-23T18:05:11.932Z,37.14
2018-06-23T18:07:41.423Z,37.09
2018-06-23T18:10:10.788Z,36.82
2018-06-23T18:12:40.160Z,37.37
2018-06-23T18:15:20.060Z,37.06
2018-06-23T18:17:58.273Z,37.67
2018-06-23T18:20:32.088Z,37.69
2018-06-23T18:23:05.935Z,38.17
2018-06-23T18:25:35.307Z,38.90
2018-06-23T18:28:09.111Z,39.03
2018-06-23T18:30:38.454Z,39.15
2018-06-23T18:33:13.279Z,39.39
2018-06-23T18:35:47.074Z,39.19
2018-06-23T18:38:16.434Z,39.09
2018-06-23T18:40:50.280Z,39.36
2018-06-23T18:43:19.612Z,39.46
2018-06-23T18:45:48.980Z,39.52
2018-06-23T18:48:22.768Z,40.12
2018-06-23T18:50:56.553Z,39.95
2018-06-23T18:53:30.360Z,39.78
2018-06-23T18:56:05.436Z,40.58
2018-06-23T18:58:34.810Z,40.05
2018-06-23T19:01:05.128Z,40.28
2018-06-23T19:03:38.988Z,40.45
2018-06-23T19:06:08.633Z,40.56
2018-06-23T19:08:46.914Z,40.94
2018-06-23T19:11:16.472Z,40.99
2018-06-23T19:13:51.053Z,41.15
2018-06-23T19:16:25.004Z,41.16
2018-06-23T19:18:59.735Z,41.38
2018-06-23T19:21:29.436Z,41.73
2018-06-23T19:23:58.789Z,41.73
2018-06-23T19:26:33.420Z,42.19
2018-06-23T19:29:02.762Z,42.70
2018-06-23T19:31:32.112Z,42.85
2018-06-23T19:34:05.913Z,42.83
2018-06-23T19:36:39.667Z,43.24
2018-06-23T19:39:17.912Z,43.54
2018-06-23T19:41:56.180Z,43.42
2018-06-23T19:44:35.044Z,43.97
2018-06-23T19:47:04.448Z,44.44
2018-06-23T19:49:33.971Z,45.21
2018-06-23T19:52:09.420Z,45.04
2018-06-23T19:54:43.508Z,45.25
2018-06-23T19:57:12.865Z,45.32
2018-06-23T19:59:42.219Z,45.64
2018-06-23T20:02:16.263Z,45.82
2018-06-23T20:04:50.348Z,45.83
2018-06-23T20:07:24.537Z,45.84
2018-06-23T20:09:53.884Z,46.12
2018-06-23T20:12:23.267Z,46.29
2018-06-23T20:15:01.540Z,46.42
2018-06-23T20:17:30.876Z,46.19
2018-06-23T20:20:05.685Z,46.02
2018-06-23T20:22:35.019Z,45.96
2018-06-23T20:25:09.850Z,46.31
2018-06-23T20:27:39.296Z,46.37
2018-06-23T20:30:18.088Z,46.39
2018-06-23T20:32:47.458Z,46.32
2018-06-23T20:35:21.341Z,46.46
2018-06-23T20:37:55.091Z,46.55
2018-06-23T20:40:24.412Z,46.27
2018-06-23T20:42:53.753Z,46.90
2018-06-23T20:45:23.108Z,46.50
2018-06-23T20:48:01.348Z,46.99
2018-06-23T20:50:35.193Z,47.25
2018-06-23T20:53:04.583Z,46.97
2018-06-23T20:55:39.222Z,46.88
2018-06-23T20:58:13.025Z,47.41
2018-06-23T21:00:42.437Z,47.47
2018-06-23T21:03:16.208Z,47.07
2018-06-23T21:05:50.013Z,47.10
2018-06-23T21:08:19.742Z,47.40
2018-06-23T21:10:49.151Z,47.47
2018-06-23T21:13:22.913Z,47.30
2018-06-23T21:15:52.307Z,47.64
2018-06-23T21:18:26.163Z,47.81
2018-06-23T21:21:00.312Z,47.73
2018-06-23T21:23:34.324Z,47.83
2018-06-23T21:26:08.155Z,47.83
2018-06-23T21:28:42.223Z,47.42
2018-06-23T21:31:16.060Z,47.99
2018-06-23T21:33:54.342Z,48.28
2018-06-23T21:36:32.568Z,48.16
2018-06-23T21:39:01.916Z,48.43
2018-06-23T21:41:35.778Z,48.05
2018-06-23T21:44:05.270Z,48.42
2018-06-23T21:46:34.670Z,48.69
2018-06-23T21:49:08.504Z,48.21
2018-06-23T21:51:46.800Z,48.81
2018-06-23T21:54:25.051Z,48.98
2018-06-23T21:56:54.691Z,48.88
2018-06-23T21:59:24.045Z,48.87
2018-06-23T22:01:57.879Z,49.13
2018-06-23T22:04:31.729Z,48.55
2018-06-23T22:07:01.075Z,49.33
2018-06-23T22:09:35.185Z,49.11
2018-06-23T22:12:05.605Z,49.38
2018-06-23T22:14:35.139Z,49.32
2018-06-23T22:17:08.983Z,49.29
2018-06-23T22:19:42.896Z,49.02
2018-06-23T22:22:21.089Z,49.00
2018-06-23T22:24:59.320Z,49.57
2018-06-23T22:27:33.144Z,49.79
2018-06-23T22:30:14.448Z,50.00
2018-06-23T22:32:43.798Z,50.72
2018-06-23T22:35:15.760Z,51.10
2018-06-23T22:37:49.582Z,52.35
2018-06-23T22:40:18.926Z,52.90
2018-06-23T22:42:57.175Z,54.16
2018-06-23T22:45:35.520Z,54.94
2018-06-23T22:48:14.044Z,54.89
2018-06-23T22:50:52.578Z,55.50
2018-06-23T22:53:26.580Z,57.03
2018-06-23T22:55:56.368Z,58.13
2018-06-23T22:58:30.166Z,59.63
2018-06-23T23:01:04.077Z,60.59
2018-06-23T23:03:42.753Z,61.05
2018-06-23T23:06:21.094Z,61.90
2018-06-23T23:08:59.352Z,62.43
2018-06-23T23:11:37.661Z,63.03
2018-06-23T23:14:12.487Z,63.55
2018-06-23T23:16:46.320Z,63.11
2018-06-23T23:19:19.292Z,63.39
2018-06-23T23:21:57.657Z,63.30
2018-06-23T23:24:33.474Z,64.01
2018-06-23T23:27:07.241Z,63.84
2018-06-23T23:29:36.774Z,64.26
2018-06-23T23:32:15.984Z,65.49
2018-06-23T23:34:49.747Z,65.58
2018-06-23T23:37:28.198Z,65.54
2018-06-23T23:40:02.026Z,66.57
2018-06-23T23:42:32.028Z,66.62
2018-06-23T23:45:12.919Z,68.45
2018-06-23T23:47:42.564Z,68.10
2018-06-23T23:50:15.354Z,67.88
2018-06-23T23:52:53.601Z,68.18
2018-06-23T23:55:22.928Z,67.68
2018-06-23T23:57:56.735Z,67.44
